Time;durP1;ratioP1;P1;durP2;ratioP2;P2;SDS_P1;SDS_P2;PMS_P1;PMS_P2;Temp;Humidity;BMP_temperature;BMP_pressure;BME280_temperature;BME280_humidity;BME280_pressure;Samples;Min_cycle;Max_cycle;Signal;HPM_P1;HPM_P2
2022/03/29 00:01:44;;;;;;;42.00;17.88;;;;;;;12.11;71.37;101159.72;7390630;19;20014;-64
2022/03/29 00:04:11;;;;;;;43.75;16.23;;;;;;;12.08;71.58;101164.50;7387891;19;20019;-64
2022/03/29 00:06:38;;;;;;;44.83;15.95;;;;;;;12.05;71.50;101168.25;7385512;19;20007;-64
2022/03/29 00:09:04;;;;;;;36.70;16.10;;;;;;;12.04;71.24;101161.31;7386034;19;20253;-65
2022/03/29 00:11:31;;;;;;;35.00;15.77;;;;;;;12.03;71.05;101158.84;7385025;19;20545;-65
2022/03/29 00:13:59;;;;;;;37.70;15.55;;;;;;;12.05;71.26;101160.34;7386090;19;20506;-64
2022/03/29 00:16:26;;;;;;;38.20;16.10;;;;;;;12.02;71.54;101163.28;7388486;19;20324;-64
2022/03/29 00:18:53;;;;;;;35.72;16.35;;;;;;;12.03;71.60;101158.84;7385711;19;20471;-63
2022/03/29 00:21:20;;;;;;;36.92;15.52;;;;;;;12.01;71.24;101153.72;7384811;19;20042;-63
2022/03/29 00:23:46;;;;;;;40.35;15.65;;;;;;;12.04;71.15;101158.69;7385366;19;20009;-63
2022/03/29 00:26:14;;;;;;;40.92;16.00;;;;;;;12.03;71.53;101150.94;7386337;19;20066;-63
2022/03/29 00:28:41;;;;;;;41.15;15.50;;;;;;;11.99;71.62;101151.22;7384126;19;20022;-63
2022/03/29 00:31:09;;;;;;;42.45;16.80;;;;;;;11.98;72.70;101144.31;7387915;19;20679;-63
2022/03/29 00:33:36;;;;;;;41.88;16.23;;;;;;;11.97;72.51;101141.84;7387231;19;20077;-64
2022/03/29 00:36:03;;;;;;;36.90;15.02;;;;;;;12.00;72.10;101134.44;7388529;19;20017;-64
2022/03/29 00:38:30;;;;;;;38.08;14.93;;;;;;;11.96;71.63;101135.72;7384058;19;20078;-63
2022/03/29 00:40:59;;;;;;;38.40;15.13;;;;;;;11.97;71.31;101132.13;7382095;19;20093;-64
2022/03/29 00:43:26;;;;;;;43.60;16.10;;;;;;;12.00;71.55;101128.31;7388440;19;20579;-63
2022/03/29 00:45:53;;;;;;;36.38;14.68;;;;;;;11.96;71.05;101130.44;7384068;19;20809;-64
2022/03/29 00:48:21;;;;;;;33.95;13.30;;;;;;;11.95;70.96;101120.06;7383761;19;20059;-63
2022/03/29 00:50:48;;;;;;;37.85;14.65;;;;;;;11.92;70.93;101117.72;7383639;19;20071;-63
2022/03/29 00:53:17;;;;;;;40.45;16.23;;;;;;;11.92;72.58;101115.94;7385487;19;20018;-64
2022/03/29 00:55:44;;;;;;;35.58;14.82;;;;;;;11.91;72.23;101116.91;7386998;19;20029;-64
2022/03/29 00:58:12;;;;;;;35.72;13.70;;;;;;;11.92;72.08;101107.19;7382216;19;20086;-64
2022/03/29 01:00:38;;;;;;;37.17;14.85;;;;;;;11.87;72.36;101105.03;7387733;19;20015;-64
2022/03/29 01:03:05;;;;;;;35.45;14.50;;;;;;;11.88;72.51;101116.41;7382528;19;20032;-65
2022/03/29 01:05:32;;;;;;;45.53;15.07;;;;;;;11.86;72.34;101115.72;7384741;19;20017;-63
2022/03/29 01:08:00;;;;;;;37.53;15.20;;;;;;;11.88;73.29;101113.75;7387437;19;20082;-63
2022/03/29 01:10:30;;;;;;;40.13;14.52;;;;;;;11.87;73.13;101117.38;7384042;19;20017;-64
2022/03/29 01:13:05;;;;;;;41.05;15.75;;;;;;;11.91;73.69;101110.81;7383607;19;20015;-64
2022/03/29 01:15:36;;;;;;;36.28;13.90;;;;;;;11.90;73.83;101109.97;7384426;19;20025;-63
2022/03/29 01:18:07;;;;;;;39.65;15.20;;;;;;;11.91;73.02;101105.53;7381293;19;20155;-63
2022/03/29 01:20:46;;;;;;;37.85;15.10;;;;;;;11.87;74.03;101110.28;7383212;19;20334;-64
2022/03/29 01:23:14;;;;;;;39.22;15.27;;;;;;;11.83;74.05;101100.22;7387021;19;20010;-63
2022/03/29 01:25:42;;;;;;;40.33;15.52;;;;;;;11.78;74.23;101105.94;7383641;19;20090;-63
2022/03/29 01:28:11;;;;;;;39.75;14.90;;;;;;;11.76;74.73;101102.63;7381301;19;20086;-63
2022/03/29 01:30:39;;;;;;;39.58;14.95;;;;;;;11.76;75.50;101113.16;7386663;19;20011;-64
2022/03/29 01:33:07;;;;;;;40.20;15.80;;;;;;;11.72;76.53;101103.88;7384887;19;20031;-63
2022/03/29 01:35:35;;;;;;;41.75;16.48;;;;;;;11.73;75.72;101104.75;7380221;19;20030;-64
2022/03/29 01:38:02;;;;;;;39.97;15.18;;;;;;;11.77;75.83;101099.00;7384181;19;20006;-64
2022/03/29 01:40:33;;;;;;;39.60;16.30;;;;;;;11.75;75.47;101100.97;7379516;19;20035;-64
2022/03/29 01:43:04;;;;;;;47.85;16.75;;;;;;;11.67;76.10;101097.41;7382996;19;20066;-64
2022/03/29 01:45:32;;;;;;;40.25;15.70;;;;;;;11.63;76.80;101093.44;7384587;19;20461;-64
2022/03/29 01:47:59;;;;;;;44.58;17.08;;;;;;;11.58;76.60;101099.97;7384281;19;20531;-64
2022/03/29 01:50:28;;;;;;;43.85;16.58;;;;;;;11.59;77.49;101106.06;7380477;19;20022;-64
2022/03/29 01:53:01;;;;;;;39.42;15.65;;;;;;;11.55;77.53;101097.66;7382566;19;20011;-65
2022/03/29 01:55:27;;;;;;;45.53;16.42;;;;;;;11.56;77.42;101098.47;7382685;19;20011;-63
2022/03/29 01:57:54;;;;;;;40.45;16.17;;;;;;;11.55;77.52;101095.00;7384309;19;20214;-62
2022/03/29 02:00:31;;;;;;;48.20;17.63;;;;;;;11.54;77.61;101084.63;7385743;19;20018;-63
2022/03/29 02:03:06;;;;;;;49.88;16.25;;;;;;;11.49;78.21;101079.81;7393016;19;20363;-62
2022/03/29 02:05:33;;;;;;;44.33;16.02;;;;;;;11.44;78.15;101079.44;7389817;19;20570;-64
2022/03/29 02:08:01;;;;;;;43.95;16.30;;;;;;;11.40;78.47;101074.63;7392973;19;20094;-63
2022/03/29 02:10:33;;;;;;;43.67;16.70;;;;;;;11.35;78.85;101075.09;7388383;19;20031;-63
2022/03/29 02:13:01;;;;;;;51.15;17.80;;;;;;;11.34;78.83;101076.06;7389571;19;20348;-62
2022/03/29 02:15:28;;;;;;;48.50;17.63;;;;;;;11.33;79.64;101066.50;7392565;19;20444;-63
2022/03/29 02:17:55;;;;;;;48.00;17.25;;;;;;;11.29;79.57;101066.94;7390039;19;20123;-63
2022/03/29 02:20:23;;;;;;;41.92;16.35;;;;;;;11.26;79.34;101052.28;7389462;19;20023;-64
2022/03/29 02:22:50;;;;;;;50.55;17.83;;;;;;;11.31;79.57;101052.66;7389086;19;20144;-63
2022/03/29 02:25:17;;;;;;;54.70;18.73;;;;;;;11.32;79.66;101045.59;7392950;19;20011;-64
2022/03/29 02:27:45;;;;;;;52.60;17.58;;;;;;;11.32;79.94;101043.78;7388496;19;20132;-63
2022/03/29 02:30:16;;;;;;;50.70;18.05;;;;;;;11.36;80.00;101047.78;7390494;19;20091;-62
2022/03/29 02:32:44;;;;;;;50.95;17.35;;;;;;;11.35;79.83;101046.09;7389936;19;20031;-63
2022/03/29 02:35:11;;;;;;;53.00;19.85;;;;;;;11.37;79.97;101040.69;7391670;19;20018;-63
2022/03/29 02:37:39;;;;;;;56.03;19.75;;;;;;;11.33;79.98;101039.31;7391305;19;20013;-63
2022/03/29 02:40:09;;;;;;;52.25;18.98;;;;;;;11.30;79.62;101044.91;7387726;19;20077;-64
2022/03/29 02:42:48;;;;;;;61.83;19.42;;;;;;;11.30;80.95;101043.09;7387653;19;20556;-63
2022/03/29 02:45:17;;;;;;;57.67;18.92;;;;;;;11.31;80.20;101043.94;7389087;19;20014;-64
2022/03/29 02:47:46;;;;;;;56.80;20.15;;;;;;;11.34;79.74;101039.19;7392185;19;20677;-66
2022/03/29 02:50:14;;;;;;;56.75;19.77;;;;;;;11.33;80.06;101045.41;7386512;19;20013;-63
2022/03/29 02:52:47;;;;;;;52.55;17.35;;;;;;;11.35;79.51;101046.09;7386801;19;20014;-63
2022/03/29 02:55:15;;;;;;;60.50;18.75;;;;;;;11.34;79.33;101033.09;7388824;19;20050;-64
2022/03/29 02:57:46;;;;;;;52.15;16.88;;;;;;;11.34;79.80;101044.44;7388684;19;20098;-62
2022/03/29 03:00:15;;;;;;;54.42;19.67;;;;;;;11.35;80.47;101040.84;7390832;19;20014;-63
2022/03/29 03:02:44;;;;;;;61.10;19.63;;;;;;;11.35;79.67;101046.09;7389461;19;20006;-64
2022/03/29 03:05:12;;;;;;;57.95;21.10;;;;;;;11.37;79.48;101038.06;7388008;19;20007;-64
2022/03/29 03:07:40;;;;;;;50.22;17.05;;;;;;;11.38;78.96;101040.53;7387804;19;20098;-64
2022/03/29 03:10:08;;;;;;;51.63;17.88;;;;;;;11.36;79.29;101034.59;7387726;19;20445;-64
2022/03/29 03:12:40;;;;;;;48.72;16.80;;;;;;;11.34;79.37;101028.63;7385911;19;20474;-63
2022/03/29 03:15:08;;;;;;;55.28;16.77;;;;;;;11.34;79.32;101030.44;7388846;19;20479;-64
2022/03/29 03:17:35;;;;;;;58.38;19.95;;;;;;;11.32;79.92;101013.97;7391970;19;20137;-64
2022/03/29 03:20:04;;;;;;;60.60;17.80;;;;;;;11.33;79.95;101023.50;7385046;19;20147;-63
2022/03/29 03:22:32;;;;;;;52.72;18.92;;;;;;;11.31;79.51;101010.53;7387183;19;20006;-64
2022/03/29 03:24:58;;;;;;;53.67;18.00;;;;;;;11.28;79.43;101013.44;7389932;19;20014;-64
2022/03/29 03:27:25;;;;;;;50.90;17.25;;;;;;;11.27;79.61;101010.97;7389179;19;20074;-64
2022/03/29 03:29:52;;;;;;;58.95;19.55;;;;;;;11.30;80.64;101011.50;7387650;19;20129;-64
2022/03/29 03:32:19;;;;;;;53.80;17.70;;;;;;;11.30;80.27;101016.75;7387306;19;20086;-64
2022/03/29 03:34:46;;;;;;;54.85;16.75;;;;;;;11.28;79.56;101008.16;7386708;19;20023;-64
2022/03/29 03:37:13;;;;;;;49.40;16.88;;;;;;;11.27;79.30;101008.34;7384036;19;20419;-64
2022/03/29 03:39:40;;;;;;;48.88;18.85;;;;;;;11.25;79.70;101005.84;7386084;19;20122;-64
2022/03/29 03:42:10;;;;;;;51.83;18.23;;;;;;;11.20;80.44;100994.94;7386537;19;20016;-63
2022/03/29 03:44:38;;;;;;;52.67;19.45;;;;;;;11.23;81.21;100991.16;7389924;19;20343;-64
2022/03/29 03:47:07;;;;;;;54.85;18.10;;;;;;;11.18;81.35;100982.91;7387199;19;20073;-64
2022/03/29 03:49:36;;;;;;;57.10;18.95;;;;;;;11.14;81.23;100972.69;7388165;19;20015;-64
2022/03/29 03:52:04;;;;;;;56.25;18.15;;;;;;;11.14;81.30;100977.13;7387229;19;20035;-64
2022/03/29 03:54:37;;;;;;;61.17;19.50;;;;;;;11.04;81.77;100961.41;7387889;19;20015;-64
2022/03/29 03:57:05;;;;;;;56.95;19.25;;;;;;;10.97;81.96;100959.56;7388465;19;20015;-64
2022/03/29 03:59:32;;;;;;;53.60;18.23;;;;;;;10.98;81.80;100948.84;7384777;19;20380;-63
2022/03/29 04:01:59;;;;;;;48.20;17.95;;;;;;;10.87;82.08;100945.66;7386220;19;20031;-64
2022/03/29 04:04:27;;;;;;;52.95;18.98;;;;;;;10.80;82.42;100940.16;7386042;19;20042;-64
2022/03/29 04:06:53;;;;;;;54.63;17.92;;;;;;;10.75;82.14;100938.94;7385768;19;20006;-63
2022/03/29 04:09:20;;;;;;;50.88;17.77;;;;;;;10.62;83.08;100934.88;7385461;19;20007;-63
2022/03/29 04:11:48;;;;;;;48.47;17.92;;;;;;;10.61;83.21;100943.78;7385592;19;20504;-63
2022/03/29 04:14:16;;;;;;;57.70;18.00;;;;;;;10.61;83.59;100950.84;7383594;19;20018;-63
2022/03/29 04:16:43;;;;;;;49.03;17.30;;;;;;;10.63;83.56;100957.59;7385627;19;20401;-64
2022/03/29 04:19:10;;;;;;;57.22;19.35;;;;;;;10.62;83.90;100965.63;7385979;19;20557;-62
2022/03/29 04:21:37;;;;;;;57.92;17.38;;;;;;;10.56;83.50;100964.44;7386125;19;20015;-64
2022/03/29 04:24:05;;;;;;;63.85;21.42;;;;;;;10.61;83.36;100961.38;7387757;19;20020;-63
2022/03/29 04:26:32;;;;;;;52.60;18.40;;;;;;;10.64;83.91;100961.88;7386475;19;20017;-64
2022/03/29 04:28:59;;;;;;;53.45;18.48;;;;;;;10.69;83.50;100959.63;7387445;19;20073;-65
2022/03/29 04:31:26;;;;;;;55.40;17.67;;;;;;;10.73;82.97;100960.97;7387960;19;20029;-64
2022/03/29 04:33:53;;;;;;;48.55;17.17;;;;;;;10.73;82.94;100960.97;7387195;19;20021;-64
2022/03/29 04:36:27;;;;;;;53.45;18.70;;;;;;;10.75;83.22;100946.84;7384383;19;20046;-64
2022/03/29 04:38:57;;;;;;;49.83;17.67;;;;;;;10.76;82.20;100941.44;7385448;19;20039;-64
2022/03/29 04:41:25;;;;;;;50.15;16.33;;;;;;;10.70;82.38;100940.25;7386600;19;20035;-64
2022/03/29 04:43:56;;;;;;;51.05;17.05;;;;;;;10.70;83.09;100937.59;7382954;19;20015;-65
2022/03/29 04:46:29;;;;;;;48.90;17.15;;;;;;;10.68;82.88;100931.66;7389310;19;20018;-64
2022/03/29 04:48:56;;;;;;;45.72;17.30;;;;;;;10.71;83.07;100912.94;7382587;19;20026;-63
2022/03/29 04:51:29;;;;;;;50.75;16.98;;;;;;;10.68;82.91;100915.88;7385814;19;20030;-63
2022/03/29 04:53:56;;;;;;;52.03;17.33;;;;;;;10.70;82.74;100923.63;7384256;19;20074;-63
2022/03/29 04:56:28;;;;;;;44.63;15.63;;;;;;;10.69;81.87;100912.25;7387157;19;20019;-63
2022/03/29 04:58:55;;;;;;;47.33;16.83;;;;;;;10.70;81.89;100916.56;7383238;19;20098;-63
2022/03/29 05:01:22;;;;;;;48.03;16.75;;;;;;;10.72;81.35;100916.38;7383757;19;20044;-63
2022/03/29 05:03:49;;;;;;;47.25;16.92;;;;;;;10.69;81.82;100914.91;7381806;19;20047;-64
2022/03/29 05:06:19;;;;;;;42.45;15.48;;;;;;;10.69;81.46;100916.69;7384618;19;20040;-62
2022/03/29 05:08:53;;;;;;;43.75;16.05;;;;;;;10.65;81.46;100918.81;7384127;19;20472;-66
2022/03/29 05:11:20;;;;;;;43.33;17.52;;;;;;;10.67;81.96;100908.94;7381289;19;20460;-64
2022/03/29 05:13:46;;;;;;;43.85;15.90;;;;;;;10.66;81.81;100914.38;7384489;19;20006;-64
2022/03/29 05:16:13;;;;;;;49.00;18.08;;;;;;;10.63;82.59;100918.13;7381593;19;20018;-63
2022/03/29 05:18:43;;;;;;;48.60;16.23;;;;;;;10.63;83.06;100920.75;7385480;19;20122;-63
2022/03/29 05:21:10;;;;;;;56.33;19.52;;;;;;;10.67;82.89;100914.22;7380842;19;20074;-63
2022/03/29 05:23:37;;;;;;;57.22;19.48;;;;;;;10.65;82.78;100910.91;7384121;19;20531;-64
2022/03/29 05:26:03;;;;;;;52.08;17.65;;;;;;;10.66;82.91;100902.06;7383560;19;20078;-63
2022/03/29 05:28:31;;;;;;;53.33;17.60;;;;;;;10.63;83.11;100906.78;7386245;19;20014;-65
2022/03/29 05:30:57;;;;;;;57.67;18.65;;;;;;;10.62;83.85;100899.84;7382424;19;20027;-63
2022/03/29 05:33:25;;;;;;;45.65;16.77;;;;;;;10.61;83.65;100904.31;7383602;19;20018;-63
2022/03/29 05:35:51;;;;;;;46.28;17.20;;;;;;;10.66;82.97;100898.59;7388972;19;20078;-63
2022/03/29 05:38:18;;;;;;;53.92;19.70;;;;;;;10.67;83.13;100897.59;7392449;19;20019;-63
2022/03/29 05:40:45;;;;;;;46.17;16.92;;;;;;;10.70;82.64;100897.31;7388730;19;20014;-64
2022/03/29 05:43:12;;;;;;;45.90;16.10;;;;;;;10.72;81.84;100890.91;7388726;19;20113;-64
2022/03/29 05:45:42;;;;;;;40.65;14.77;;;;;;;10.68;81.86;100900.09;7393705;19;20020;-63
2022/03/29 05:50:55;;;;;;;35.47;13.90;;;;;;;10.64;81.56;100896.09;7390234;19;20015;-64
2022/03/29 05:53:22;;;;;;;43.50;15.38;;;;;;;10.63;81.33;100889.19;7390696;19;20122;-63
2022/03/29 05:55:49;;;;;;;46.03;16.38;;;;;;;10.61;82.20;100892.97;7389529;19;20024;-66
2022/03/29 05:58:16;;;;;;;44.40;14.55;;;;;;;10.62;81.94;100894.59;7390365;19;20067;-63
2022/03/29 06:00:44;;;;;;;42.67;14.88;;;;;;;10.60;81.22;100880.78;7392736;19;20025;-62
2022/03/29 06:03:10;;;;;;;42.50;14.50;;;;;;;10.57;82.17;100884.53;7389696;19;20443;-64
2022/03/29 06:05:42;;;;;;;43.33;14.93;;;;;;;10.55;81.82;100881.22;7391296;19;20485;-63
2022/03/29 06:08:10;;;;;;;44.83;17.80;;;;;;;10.53;81.66;100885.81;7390818;19;20002;-64
2022/03/29 06:10:37;;;;;;;44.45;14.63;;;;;;;10.53;82.63;100884.97;7388573;19;20106;-63
2022/03/29 06:13:05;;;;;;;42.72;14.43;;;;;;;10.48;82.46;100893.31;7393924;19;20046;-63
2022/03/29 06:15:31;;;;;;;40.08;14.60;;;;;;;10.50;82.57;100880.03;7394088;19;20014;-63
2022/03/29 06:17:58;;;;;;;45.38;15.35;;;;;;;10.54;82.31;100878.75;7387007;19;20014;-63
2022/03/29 06:20:25;;;;;;;41.13;15.50;;;;;;;10.56;82.47;100876.81;7389467;19;20019;-64
2022/03/29 06:22:52;;;;;;;44.45;13.57;;;;;;;10.51;81.67;100879.06;7390066;19;20010;-63
2022/03/29 06:25:19;;;;;;;43.78;14.02;;;;;;;10.50;81.83;100870.34;7392132;19;20010;-64
2022/03/29 06:27:46;;;;;;;42.38;14.10;;;;;;;10.46;82.06;100871.63;7388821;19;20547;-64
2022/03/29 06:30:13;;;;;;;40.40;13.98;;;;;;;10.48;81.60;100877.53;7388766;19;20693;-62
2022/03/29 06:32:48;;;;;;;44.65;15.80;;;;;;;10.52;81.49;100868.38;7388836;19;20021;-64
2022/03/29 06:35:19;;;;;;;44.20;15.95;;;;;;;10.55;81.70;100864.63;7389176;19;20101;-63
2022/03/29 06:37:46;;;;;;;44.50;14.82;;;;;;;10.56;81.51;100867.09;7392781;19;20014;-63
2022/03/29 06:40:12;;;;;;;44.40;16.27;;;;;;;10.52;81.25;100857.84;7385126;19;20023;-63
2022/03/29 06:42:40;;;;;;;49.80;15.85;;;;;;;10.54;81.34;100861.16;7390103;19;20011;-63
2022/03/29 06:45:08;;;;;;;42.78;14.65;;;;;;;10.56;82.01;100855.75;7387635;19;20082;-63
2022/03/29 06:47:35;;;;;;;45.22;16.20;;;;;;;10.53;81.47;100858.66;7389958;19;20014;-63
2022/03/29 06:50:04;;;;;;;45.28;14.55;;;;;;;10.52;82.03;100859.63;7387904;19;20018;-63
2022/03/29 06:52:45;;;;;;;46.53;15.27;;;;;;;10.48;82.08;100859.13;7387603;19;20211;-65
2022/03/29 06:55:16;;;;;;;58.83;15.38;;;;;;;10.45;81.98;100862.06;7390342;19;20093;-62
2022/03/29 06:57:44;;;;;;;47.00;14.60;;;;;;;10.52;82.21;100872.78;7387955;19;20034;-65
2022/03/29 07:00:13;;;;;;;44.20;14.60;;;;;;;10.51;81.73;100871.16;7389506;19;20062;-63
2022/03/29 07:02:40;;;;;;;49.00;15.82;;;;;;;10.52;82.34;100878.88;7387207;19;20017;-63
2022/03/29 07:05:08;;;;;;;44.45;14.18;;;;;;;10.55;82.14;100881.22;7388123;19;20071;-63
2022/03/29 07:07:34;;;;;;;43.63;14.95;;;;;;;10.60;81.60;100876.34;7391207;19;22141;-63
2022/03/29 07:12:56;;;;;;;44.80;13.48;;;;;;;10.70;81.17;100884.16;7388380;19;20010;-63
2022/03/29 07:15:24;;;;;;;39.05;12.57;;;;;;;10.76;80.35;100888.81;7388449;19;20017;-64
2022/03/29 07:17:52;;;;;;;42.03;14.20;;;;;;;10.82;80.36;100880.28;7390570;19;20026;-64
2022/03/29 07:20:20;;;;;;;39.25;12.98;;;;;;;10.84;80.29;100894.13;7390715;19;20016;-62
2022/03/29 07:22:48;;;;;;;40.47;13.38;;;;;;;10.87;79.90;100888.53;7391192;19;20136;-63
2022/03/29 07:25:18;;;;;;;38.17;13.93;;;;;;;10.92;79.78;100880.22;7389205;19;20011;-63
2022/03/29 07:27:45;;;;;;;36.55;11.13;;;;;;;11.05;79.42;100886.72;7388727;19;20093;-63
2022/03/29 07:30:13;;;;;;;38.75;11.52;;;;;;;11.18;78.60;100882.81;7385683;19;20426;-63
2022/03/29 07:32:56;;;;;;;33.13;12.10;;;;;;;11.25;77.59;100884.69;7388907;19;20010;-64
2022/03/29 07:35:26;;;;;;;38.05;11.52;;;;;;;11.34;77.56;100882.94;7387109;19;20390;-64
2022/03/29 07:37:53;;;;;;;30.45;10.63;;;;;;;11.37;77.59;100886.09;7387964;19;20082;-64
2022/03/29 07:40:30;;;;;;;31.10;11.18;;;;;;;11.43;76.75;100884.63;7385506;19;20018;-64
2022/03/29 07:42:58;;;;;;;33.28;12.50;;;;;;;11.40;76.63;100880.50;7387008;19;20022;-63
2022/03/29 07:45:27;;;;;;;36.38;12.25;;;;;;;11.39;77.82;100889.38;7360033;19;20006;-65
2022/03/29 07:47:56;;;;;;;32.65;10.98;;;;;;;11.34;77.81;100886.38;7385646;19;20015;-64
2022/03/29 07:50:43;;;;;;;34.25;11.75;;;;;;;11.24;77.92;100880.41;7386145;19;20014;-63
2022/03/29 07:53:10;;;;;;;34.88;10.93;;;;;;;11.24;78.21;100882.22;7386246;19;20027;-64
2022/03/29 07:55:39;;;;;;;33.67;11.93;;;;;;;11.35;79.93;100874.06;7385495;19;20011;-63
2022/03/29 07:58:13;;;;;;;34.63;10.45;;;;;;;11.36;79.34;100880.97;7383403;19;20025;-63
2022/03/29 08:00:40;;;;;;;37.22;14.07;;;;;;;11.34;80.01;100881.13;7390066;19;20063;-64
2022/03/29 08:03:12;;;;;;;34.55;13.38;;;;;;;11.31;78.72;100876.19;7384350;19;20046;-64
2022/03/29 08:05:41;;;;;;;42.00;11.93;;;;;;;11.29;77.83;100878.13;7386666;19;20018;-64
2022/03/29 08:08:11;;;;;;;34.80;11.07;;;;;;;11.32;77.72;100874.38;7385429;19;20017;-63
2022/03/29 08:11:07;;;;;;;38.65;12.75;;;;;;;11.32;78.55;100867.31;7380790;19;20011;-63
2022/03/29 08:13:35;;;;;;;37.05;11.80;;;;;;;11.37;78.55;100872.94;7381643;19;20011;-63
2022/03/29 08:16:03;;;;;;;30.67;11.57;;;;;;;11.44;77.29;100862.56;7382761;19;20038;-64
2022/03/29 08:18:31;;;;;;;37.55;13.40;;;;;;;11.41;77.73;100862.88;7372048;19;20386;-63
2022/03/29 08:20:58;;;;;;;41.40;12.55;;;;;;;11.43;78.05;100858.28;7383247;19;20038;-63
2022/03/29 08:23:26;;;;;;;32.22;11.07;;;;;;;11.44;79.30;100859.94;7382338;19;20081;-63
2022/03/29 08:25:53;;;;;;;41.05;13.02;;;;;;;11.45;78.52;100861.59;7379856;19;20010;-64
2022/03/29 08:28:21;;;;;;;32.00;11.25;;;;;;;11.51;76.89;100858.31;7378629;19;20011;-63
2022/03/29 08:30:48;;;;;;;37.97;11.60;;;;;;;11.48;77.49;100863.91;7381578;19;20010;-62
2022/03/29 08:33:15;;;;;;;34.72;11.18;;;;;;;11.50;76.64;100864.56;7380842;19;20019;-63
2022/03/29 08:35:44;;;;;;;31.42;10.98;;;;;;;11.50;76.39;100861.94;7384477;19;20043;-64
2022/03/29 08:38:12;;;;;;;31.38;9.75;;;;;;;11.45;76.97;100867.69;7387224;19;20339;-64
2022/03/29 08:40:57;;;;;;;37.85;11.70;;;;;;;11.51;76.80;100864.44;7382833;19;20034;-63
2022/03/29 08:43:30;;;;;;;29.85;11.20;;;;;;;11.59;76.27;100867.09;7385300;19;20011;-64
2022/03/29 08:45:58;;;;;;;32.10;11.13;;;;;;;11.63;76.45;100869.41;7382663;19;20039;-64
2022/03/29 08:48:30;;;;;;;31.98;10.73;;;;;;;11.66;75.44;100859.38;7382723;19;20018;-63
2022/03/29 08:50:59;;;;;;;33.83;10.27;;;;;;;11.66;75.72;100858.53;7385245;19;20054;-65
2022/03/29 08:53:48;;;;;;;29.40;9.00;;;;;;;11.72;76.17;100863.19;7385349;19;20030;-64
2022/03/29 08:56:38;;;;;;;32.28;10.70;;;;;;;11.74;75.27;100856.78;7381883;19;20011;-64
2022/03/29 08:59:06;;;;;;;30.70;10.77;;;;;;;11.78;75.06;100852.88;7379168;19;20007;-63
2022/03/29 09:01:33;;;;;;;30.23;11.30;;;;;;;11.83;75.61;100855.84;7378094;19;20033;-63
2022/03/29 09:04:13;;;;;;;30.02;10.50;;;;;;;11.86;75.49;100857.34;7386501;19;20013;-65
2022/03/29 09:07:00;;;;;;;28.67;9.57;;;;;;;11.84;74.95;100857.47;7382023;19;20030;-64
2022/03/29 09:09:36;;;;;;;30.58;10.10;;;;;;;11.81;74.60;100855.19;7381229;19;20010;-64
2022/03/29 09:12:20;;;;;;;28.90;9.88;;;;;;;11.71;75.42;100845.72;7381323;19;20010;-63
2022/03/29 09:14:54;;;;;;;31.70;11.38;;;;;;;11.51;76.24;100838.06;7381911;19;20019;-65
2022/03/29 09:17:41;;;;;;;27.52;10.05;;;;;;;11.53;76.37;100843.16;7384112;19;20010;-63
2022/03/29 09:20:33;;;;;;;25.13;8.55;;;;;;;11.45;76.58;100843.16;7384769;19;20014;-64
2022/03/29 09:23:14;;;;;;;28.75;9.60;;;;;;;11.46;77.28;100835.09;7385183;19;20098;-65
2022/03/29 09:25:52;;;;;;;26.50;8.88;;;;;;;11.48;76.57;100832.28;7383405;19;20400;-65
2022/03/29 09:28:20;;;;;;;26.90;7.53;;;;;;;11.52;76.45;100829.19;7381192;19;20121;-63
2022/03/29 09:30:50;;;;;;;23.50;7.57;;;;;;;11.58;76.13;100823.25;7381930;19;20038;-64
2022/03/29 09:33:34;;;;;;;23.95;7.63;;;;;;;11.63;76.16;100829.88;7383924;19;20018;-64
2022/03/29 09:36:04;;;;;;;30.35;8.70;;;;;;;11.58;76.21;100835.59;7382918;19;20452;-65
2022/03/29 09:38:34;;;;;;;31.48;8.40;;;;;;;11.58;76.49;100841.72;7379452;19;20737;-65
2022/03/29 09:41:03;;;;;;;25.83;8.02;;;;;;;11.62;76.26;100836.97;7379410;19;20006;-65
2022/03/29 09:43:31;;;;;;;22.20;8.00;;;;;;;11.56;76.13;100838.44;7386558;19;20015;-64
2022/03/29 09:46:00;;;;;;;23.25;7.07;;;;;;;11.65;76.09;100833.16;7380021;19;20070;-65
2022/03/29 09:48:31;;;;;;;21.45;6.95;;;;;;;11.70;75.53;100831.72;7383201;19;20021;-64
2022/03/29 09:51:17;;;;;;;23.25;7.60;;;;;;;11.78;75.58;100825.69;7384277;19;20013;-63
2022/03/29 09:53:51;;;;;;;21.65;7.43;;;;;;;11.77;75.97;100830.13;7385250;19;20078;-63
2022/03/29 09:56:30;;;;;;;21.80;6.43;;;;;;;11.83;75.52;100826.84;7381415;19;20014;-64
2022/03/29 09:59:16;;;;;;;21.48;6.55;;;;;;;11.88;74.76;100821.94;7383577;19;20011;-63
2022/03/29 10:01:53;;;;;;;18.17;5.88;;;;;;;11.96;74.57;100823.75;7387106;19;20011;-65
2022/03/29 10:04:23;;;;;;;19.60;5.53;;;;;;;12.04;74.39;100821.09;7382898;19;20433;-63
2022/03/29 10:06:56;;;;;;;25.33;6.78;;;;;;;12.13;74.43;100824.59;7384121;19;20353;-64
2022/03/29 10:09:27;;;;;;;21.92;6.90;;;;;;;12.22;73.55;100823.63;7382717;19;20277;-64
2022/03/29 10:11:59;;;;;;;20.85;6.85;;;;;;;12.28;73.09;100820.31;7380310;19;20025;-64
2022/03/29 10:14:27;;;;;;;25.67;7.97;;;;;;;12.31;72.68;100823.44;7383618;19;20029;-63
2022/03/29 10:16:56;;;;;;;21.30;6.88;;;;;;;12.37;72.73;100828.09;7380182;19;20351;-63
2022/03/29 10:19:23;;;;;;;20.67;6.45;;;;;;;12.44;72.71;100826.41;7384131;19;20562;-64
2022/03/29 10:21:53;;;;;;;25.23;7.03;;;;;;;12.54;71.80;100830.72;7390612;19;20025;-65
2022/03/29 10:24:22;;;;;;;19.23;5.82;;;;;;;12.60;71.60;100824.75;7391424;19;20070;-64
2022/03/29 10:26:51;;;;;;;21.10;5.68;;;;;;;12.65;71.75;100820.63;7389576;19;20047;-63
2022/03/29 10:29:19;;;;;;;21.85;6.97;;;;;;;12.69;71.08;100821.97;7390580;19;20026;-64
2022/03/29 10:32:06;;;;;;;17.15;5.20;;;;;;;12.67;71.01;100823.94;7392154;19;20187;-65
2022/03/29 10:34:39;;;;;;;16.48;5.05;;;;;;;12.65;71.01;100819.81;7391023;19;20027;-63
2022/03/29 10:37:17;;;;;;;19.13;6.80;;;;;;;12.65;71.51;100823.28;7389710;19;20495;-63
2022/03/29 10:39:45;;;;;;;21.02;6.95;;;;;;;12.70;71.04;100825.41;7387626;19;20038;-65
2022/03/29 10:42:29;;;;;;;17.38;5.18;;;;;;;12.70;70.66;100817.50;7386398;19;20015;-64
2022/03/29 10:45:03;;;;;;;20.25;6.03;;;;;;;12.69;70.53;100818.50;7386320;19;20509;-64
2022/03/29 10:47:59;;;;;;;20.88;5.65;;;;;;;12.71;69.75;100819.16;7387816;19;20019;-63
2022/03/29 10:50:53;;;;;;;20.60;6.18;;;;;;;12.70;69.94;100820.97;7388069;19;20006;-64
2022/03/29 10:53:27;;;;;;;17.55;5.72;;;;;;;12.67;70.24;100816.03;7385429;19;20114;-63
2022/03/29 10:56:15;;;;;;;20.33;6.80;;;;;;;12.63;70.77;100812.06;7387792;19;20007;-63
2022/03/29 10:59:02;;;;;;;17.98;6.47;;;;;;;12.62;71.22;100806.94;7388153;19;20018;-65
2022/03/29 11:01:30;;;;;;;19.70;5.88;;;;;;;12.55;71.22;100805.97;7391441;19;20014;-63
2022/03/29 11:04:20;;;;;;;20.23;5.40;;;;;;;12.59;70.94;100796.75;7390207;19;20593;-64
2022/03/29 11:07:05;;;;;;;21.13;6.65;;;;;;;12.63;71.24;100800.69;7385386;19;20808;-64
2022/03/29 11:09:34;;;;;;;24.20;7.05;;;;;;;12.55;71.27;100796.22;7388500;19;20047;-64
2022/03/29 11:12:03;;;;;;;21.00;6.47;;;;;;;12.53;71.41;100786.84;7384820;19;20014;-64
2022/03/29 11:14:34;;;;;;;20.92;7.70;;;;;;;12.54;71.35;100786.69;7388757;19;20011;-64
2022/03/29 11:17:01;;;;;;;20.20;6.65;;;;;;;12.56;71.61;100789.13;7386181;19;20010;-65
2022/03/29 11:19:44;;;;;;;20.92;7.53;;;;;;;12.58;73.23;100781.88;7388045;19;20017;-63
2022/03/29 11:22:34;;;;;;;19.38;5.97;;;;;;;12.56;71.71;100786.50;7383680;19;20007;-63
2022/03/29 11:25:05;;;;;;;20.77;6.97;;;;;;;12.57;71.66;100796.91;7384742;19;20007;-64
2022/03/29 11:27:36;;;;;;;22.63;6.70;;;;;;;12.51;72.04;100792.28;7387833;19;20054;-64
2022/03/29 11:30:07;;;;;;;18.60;6.20;;;;;;;12.36;72.54;100791.28;7389288;19;20519;-63
2022/03/29 11:32:34;;;;;;;19.35;6.10;;;;;;;12.29;72.97;100785.84;7381612;19;20078;-64